sensor_id;sensor_type;location;lat;lon;timestamp;P1;durP1;ratioP1;P2;durP2;ratioP2
38605;SDS011;24365;48.446;8.850;2023-05-07T00:09:09;5.03;;;3.40;;
38605;SDS011;24365;48.446;8.850;2023-05-07T00:14:11;6.10;;;3.00;;
38605;SDS011;24365;48.446;8.850;2023-05-07T00:19:12;4.90;;;2.97;;
38605;SDS011;24365;48.446;8.850;2023-05-07T00:24:13;3.97;;;3.00;;
38605;SDS011;24365;48.446;8.850;2023-05-07T00:29:14;6.03;;;2.90;;
38605;SDS011;24365;48.446;8.850;2023-05-07T00:34:15;7.20;;;2.87;;
38605;SDS011;24365;48.446;8.850;2023-05-07T00:39:16;5.10;;;3.43;;
38605;SDS011;24365;48.446;8.850;2023-05-07T00:44:17;5.73;;;3.43;;
38605;SDS011;24365;48.446;8.850;2023-05-07T00:49:18;5.90;;;3.63;;
38605;SDS011;24365;48.446;8.850;2023-05-07T00:54:20;8.18;;;2.95;;
38605;SDS011;24365;48.446;8.850;2023-05-07T00:59:22;6.30;;;3.10;;
38605;SDS011;24365;48.446;8.850;2023-05-07T01:04:24;6.65;;;3.33;;
38605;SDS011;24365;48.446;8.850;2023-05-07T01:09:25;3.65;;;3.05;;
38605;SDS011;24365;48.446;8.850;2023-05-07T01:14:27;3.25;;;2.95;;
38605;SDS011;24365;48.446;8.850;2023-05-07T01:19:29;3.67;;;3.08;;
38605;SDS011;24365;48.446;8.850;2023-05-07T01:24:32;4.72;;;2.90;;
38605;SDS011;24365;48.446;8.850;2023-05-07T01:29:34;4.53;;;3.15;;
38605;SDS011;24365;48.446;8.850;2023-05-07T01:34:35;6.77;;;3.20;;
38605;SDS011;24365;48.446;8.850;2023-05-07T01:44:40;5.82;;;3.88;;
38605;SDS011;24365;48.446;8.850;2023-05-07T01:49:41;4.97;;;3.13;;
38605;SDS011;24365;48.446;8.850;2023-05-07T01:59:43;7.05;;;3.08;;
38605;SDS011;24365;48.446;8.850;2023-05-07T02:04:44;4.67;;;3.00;;
38605;SDS011;24365;48.446;8.850;2023-05-07T02:09:47;5.15;;;3.10;;
38605;SDS011;24365;48.446;8.850;2023-05-07T02:14:49;3.42;;;3.08;;
38605;SDS011;24365;48.446;8.850;2023-05-07T02:19:50;4.40;;;3.10;;
38605;SDS011;24365;48.446;8.850;2023-05-07T02:24:51;6.47;;;3.30;;
38605;SDS011;24365;48.446;8.850;2023-05-07T02:29:52;4.47;;;2.80;;
38605;SDS011;24365;48.446;8.850;2023-05-07T02:34:53;4.40;;;3.43;;
38605;SDS011;24365;48.446;8.850;2023-05-07T02:39:54;9.52;;;3.30;;
38605;SDS011;24365;48.446;8.850;2023-05-07T02:44:55;5.43;;;3.23;;
38605;SDS011;24365;48.446;8.850;2023-05-07T02:49:56;3.53;;;3.23;;
38605;SDS011;24365;48.446;8.850;2023-05-07T02:54:57;8.47;;;3.40;;
38605;SDS011;24365;48.446;8.850;2023-05-07T02:59:58;5.37;;;3.77;;
38605;SDS011;24365;48.446;8.850;2023-05-07T03:05:05;6.40;;;2.90;;
38605;SDS011;24365;48.446;8.850;2023-05-07T03:10:08;4.82;;;3.10;;
38605;SDS011;24365;48.446;8.850;2023-05-07T03:15:10;5.95;;;4.07;;
38605;SDS011;24365;48.446;8.850;2023-05-07T03:20:14;6.45;;;3.25;;
38605;SDS011;24365;48.446;8.850;2023-05-07T03:25:16;4.13;;;3.28;;
38605;SDS011;24365;48.446;8.850;2023-05-07T03:30:17;5.73;;;3.00;;
38605;SDS011;24365;48.446;8.850;2023-05-07T03:35:18;4.22;;;2.88;;
38605;SDS011;24365;48.446;8.850;2023-05-07T03:40:20;4.30;;;2.80;;
38605;SDS011;24365;48.446;8.850;2023-05-07T03:45:25;3.63;;;3.08;;
38605;SDS011;24365;48.446;8.850;2023-05-07T03:50:35;5.72;;;2.92;;
38605;SDS011;24365;48.446;8.850;2023-05-07T03:55:37;7.40;;;3.40;;
38605;SDS011;24365;48.446;8.850;2023-05-07T04:00:39;3.10;;;2.70;;
38605;SDS011;24365;48.446;8.850;2023-05-07T04:05:51;3.20;;;2.90;;
38605;SDS011;24365;48.446;8.850;2023-05-07T04:10:56;6.18;;;3.00;;
38605;SDS011;24365;48.446;8.850;2023-05-07T04:16:00;3.38;;;2.78;;
38605;SDS011;24365;48.446;8.850;2023-05-07T04:21:03;4.07;;;2.92;;
38605;SDS011;24365;48.446;8.850;2023-05-07T04:31:15;4.00;;;3.30;;
38605;SDS011;24365;48.446;8.850;2023-05-07T04:36:18;4.38;;;3.05;;
38605;SDS011;24365;48.446;8.850;2023-05-07T04:41:25;5.80;;;2.85;;
38605;SDS011;24365;48.446;8.850;2023-05-07T04:46:27;6.85;;;3.55;;
38605;SDS011;24365;48.446;8.850;2023-05-07T04:51:31;3.65;;;3.05;;
38605;SDS011;24365;48.446;8.850;2023-05-07T04:56:34;8.10;;;3.63;;
38605;SDS011;24365;48.446;8.850;2023-05-07T05:01:36;5.38;;;3.85;;
38605;SDS011;24365;48.446;8.850;2023-05-07T05:06:38;5.30;;;3.40;;
38605;SDS011;24365;48.446;8.850;2023-05-07T05:11:41;5.15;;;3.38;;
38605;SDS011;24365;48.446;8.850;2023-05-07T05:16:42;6.25;;;3.80;;
38605;SDS011;24365;48.446;8.850;2023-05-07T05:21:44;5.57;;;3.40;;
38605;SDS011;24365;48.446;8.850;2023-05-07T05:26:46;7.35;;;3.42;;
38605;SDS011;24365;48.446;8.850;2023-05-07T05:31:48;6.18;;;3.50;;
38605;SDS011;24365;48.446;8.850;2023-05-07T05:36:49;3.65;;;3.35;;
38605;SDS011;24365;48.446;8.850;2023-05-07T05:41:51;5.63;;;3.50;;
38605;SDS011;24365;48.446;8.850;2023-05-07T05:46:52;3.50;;;3.10;;
38605;SDS011;24365;48.446;8.850;2023-05-07T05:51:56;5.55;;;3.83;;
38605;SDS011;24365;48.446;8.850;2023-05-07T05:56:59;6.25;;;3.10;;
38605;SDS011;24365;48.446;8.850;2023-05-07T06:02:01;6.60;;;3.28;;
38605;SDS011;24365;48.446;8.850;2023-05-07T06:27:52;4.78;;;2.97;;
38605;SDS011;24365;48.446;8.850;2023-05-07T06:32:53;7.73;;;3.10;;
38605;SDS011;24365;48.446;8.850;2023-05-07T06:37:55;6.00;;;3.40;;
38605;SDS011;24365;48.446;8.850;2023-05-07T06:43:00;4.97;;;3.30;;
38605;SDS011;24365;48.446;8.850;2023-05-07T06:48:10;4.30;;;3.25;;
38605;SDS011;24365;48.446;8.850;2023-05-07T06:53:24;5.03;;;3.30;;
38605;SDS011;24365;48.446;8.850;2023-05-07T06:58:27;5.43;;;3.40;;
38605;SDS011;24365;48.446;8.850;2023-05-07T07:03:29;6.07;;;3.58;;
38605;SDS011;24365;48.446;8.850;2023-05-07T07:13:32;7.65;;;3.10;;
38605;SDS011;24365;48.446;8.850;2023-05-07T07:18:33;4.90;;;3.50;;
38605;SDS011;24365;48.446;8.850;2023-05-07T07:23:34;6.30;;;3.90;;
38605;SDS011;24365;48.446;8.850;2023-05-07T07:28:36;4.03;;;3.17;;
38605;SDS011;24365;48.446;8.850;2023-05-07T07:33:43;5.65;;;3.58;;
38605;SDS011;24365;48.446;8.850;2023-05-07T07:38:44;7.03;;;4.20;;
38605;SDS011;24365;48.446;8.850;2023-05-07T07:43:46;8.75;;;4.30;;
38605;SDS011;24365;48.446;8.850;2023-05-07T07:48:48;8.73;;;3.92;;
38605;SDS011;24365;48.446;8.850;2023-05-07T07:53:49;5.47;;;3.60;;
38605;SDS011;24365;48.446;8.850;2023-05-07T07:58:52;4.05;;;3.10;;
38605;SDS011;24365;48.446;8.850;2023-05-07T08:03:55;5.65;;;3.45;;
38605;SDS011;24365;48.446;8.850;2023-05-07T08:09:00;3.78;;;3.20;;
38605;SDS011;24365;48.446;8.850;2023-05-07T08:14:02;4.15;;;3.25;;
38605;SDS011;24365;48.446;8.850;2023-05-07T08:24:05;5.00;;;3.50;;
38605;SDS011;24365;48.446;8.850;2023-05-07T08:29:07;10.00;;;3.33;;
38605;SDS011;24365;48.446;8.850;2023-05-07T08:34:09;6.35;;;3.90;;
38605;SDS011;24365;48.446;8.850;2023-05-07T08:39:15;6.97;;;3.15;;
38605;SDS011;24365;48.446;8.850;2023-05-07T08:44:18;6.18;;;3.10;;
38605;SDS011;24365;48.446;8.850;2023-05-07T08:49:23;3.90;;;3.00;;
38605;SDS011;24365;48.446;8.850;2023-05-07T08:54:25;3.08;;;2.45;;
38605;SDS011;24365;48.446;8.850;2023-05-07T08:59:28;4.13;;;3.00;;
38605;SDS011;24365;48.446;8.850;2023-05-07T09:04:31;4.70;;;2.70;;
38605;SDS011;24365;48.446;8.850;2023-05-07T09:09:33;5.82;;;2.30;;
38605;SDS011;24365;48.446;8.850;2023-05-07T09:14:35;2.47;;;2.15;;
38605;SDS011;24365;48.446;8.850;2023-05-07T09:19:37;4.07;;;2.53;;
38605;SDS011;24365;48.446;8.850;2023-05-07T09:24:46;3.30;;;2.30;;
38605;SDS011;24365;48.446;8.850;2023-05-07T09:29:49;3.47;;;2.53;;
38605;SDS011;24365;48.446;8.850;2023-05-07T09:34:51;2.67;;;2.42;;
38605;SDS011;24365;48.446;8.850;2023-05-07T09:39:56;2.42;;;2.20;;
38605;SDS011;24365;48.446;8.850;2023-05-07T09:44:59;3.78;;;2.20;;
38605;SDS011;24365;48.446;8.850;2023-05-07T09:50:05;4.22;;;2.50;;
38605;SDS011;24365;48.446;8.850;2023-05-07T09:55:14;2.60;;;1.92;;
38605;SDS011;24365;48.446;8.850;2023-05-07T10:00:21;2.17;;;1.98;;
38605;SDS011;24365;48.446;8.850;2023-05-07T10:05:23;3.92;;;2.30;;
38605;SDS011;24365;48.446;8.850;2023-05-07T10:10:28;4.57;;;1.95;;
38605;SDS011;24365;48.446;8.850;2023-05-07T10:15:31;4.38;;;2.17;;
38605;SDS011;24365;48.446;8.850;2023-05-07T10:20:36;5.90;;;2.60;;
38605;SDS011;24365;48.446;8.850;2023-05-07T10:25:41;4.88;;;2.67;;
38605;SDS011;24365;48.446;8.850;2023-05-07T10:36:49;2.53;;;2.30;;
38605;SDS011;24365;48.446;8.850;2023-05-07T10:41:53;3.33;;;2.15;;
38605;SDS011;24365;48.446;8.850;2023-05-07T10:52:14;4.90;;;2.53;;
38605;SDS011;24365;48.446;8.850;2023-05-07T11:08:08;4.85;;;2.55;;
38605;SDS011;24365;48.446;8.850;2023-05-07T11:13:18;4.17;;;2.93;;
38605;SDS011;24365;48.446;8.850;2023-05-07T11:18:50;4.20;;;2.50;;
38605;SDS011;24365;48.446;8.850;2023-05-07T11:23:59;2.45;;;2.05;;
38605;SDS011;24365;48.446;8.850;2023-05-07T11:29:11;3.20;;;2.00;;
38605;SDS011;24365;48.446;8.850;2023-05-07T11:34:15;4.75;;;2.25;;
38605;SDS011;24365;48.446;8.850;2023-05-07T11:39:23;3.40;;;2.17;;
38605;SDS011;24365;48.446;8.850;2023-05-07T11:44:45;2.95;;;1.92;;
38605;SDS011;24365;48.446;8.850;2023-05-07T11:49:48;4.38;;;1.95;;
38605;SDS011;24365;48.446;8.850;2023-05-07T11:54:51;2.50;;;2.20;;
38605;SDS011;24365;48.446;8.850;2023-05-07T11:59:53;4.78;;;2.00;;
38605;SDS011;24365;48.446;8.850;2023-05-07T12:04:55;4.40;;;1.80;;
38605;SDS011;24365;48.446;8.850;2023-05-07T12:09:56;4.15;;;1.58;;
38605;SDS011;24365;48.446;8.850;2023-05-07T12:14:58;5.78;;;1.98;;
38605;SDS011;24365;48.446;8.850;2023-05-07T12:19:59;6.85;;;1.95;;
38605;SDS011;24365;48.446;8.850;2023-05-07T12:25:01;4.05;;;1.67;;
38605;SDS011;24365;48.446;8.850;2023-05-07T12:30:03;5.88;;;2.03;;
38605;SDS011;24365;48.446;8.850;2023-05-07T12:35:05;5.07;;;2.20;;
38605;SDS011;24365;48.446;8.850;2023-05-07T12:40:08;5.55;;;2.65;;
38605;SDS011;24365;48.446;8.850;2023-05-07T12:45:12;9.48;;;2.55;;
38605;SDS011;24365;48.446;8.850;2023-05-07T12:50:15;3.20;;;2.30;;
38605;SDS011;24365;48.446;8.850;2023-05-07T12:55:17;4.07;;;2.30;;
38605;SDS011;24365;48.446;8.850;2023-05-07T13:00:32;6.10;;;2.40;;
38605;SDS011;24365;48.446;8.850;2023-05-07T13:05:39;6.78;;;2.60;;
38605;SDS011;24365;48.446;8.850;2023-05-07T13:10:40;3.42;;;1.90;;
38605;SDS011;24365;48.446;8.850;2023-05-07T13:15:41;2.93;;;1.90;;
38605;SDS011;24365;48.446;8.850;2023-05-07T13:20:42;5.32;;;1.90;;
38605;SDS011;24365;48.446;8.850;2023-05-07T13:25:43;4.55;;;1.95;;
38605;SDS011;24365;48.446;8.850;2023-05-07T13:30:44;2.30;;;1.70;;
38605;SDS011;24365;48.446;8.850;2023-05-07T13:35:45;9.23;;;2.50;;
38605;SDS011;24365;48.446;8.850;2023-05-07T13:40:46;3.45;;;1.80;;
38605;SDS011;24365;48.446;8.850;2023-05-07T13:45:47;4.17;;;2.17;;
38605;SDS011;24365;48.446;8.850;2023-05-07T13:50:48;4.93;;;1.90;;
38605;SDS011;24365;48.446;8.850;2023-05-07T13:55:50;4.00;;;1.80;;
38605;SDS011;24365;48.446;8.850;2023-05-07T14:00:50;2.95;;;2.20;;
38605;SDS011;24365;48.446;8.850;2023-05-07T14:05:51;6.60;;;2.20;;
38605;SDS011;24365;48.446;8.850;2023-05-07T14:10:53;2.75;;;1.63;;
38605;SDS011;24365;48.446;8.850;2023-05-07T14:15:54;2.85;;;1.90;;
38605;SDS011;24365;48.446;8.850;2023-05-07T14:20:55;3.72;;;1.70;;
38605;SDS011;24365;48.446;8.850;2023-05-07T14:25:56;6.00;;;2.50;;
38605;SDS011;24365;48.446;8.850;2023-05-07T14:30:57;4.72;;;1.98;;
38605;SDS011;24365;48.446;8.850;2023-05-07T14:35:58;6.70;;;2.50;;
38605;SDS011;24365;48.446;8.850;2023-05-07T14:46:01;5.93;;;2.43;;
38605;SDS011;24365;48.446;8.850;2023-05-07T14:51:02;3.53;;;1.85;;
38605;SDS011;24365;48.446;8.850;2023-05-07T14:56:05;6.07;;;2.85;;
38605;SDS011;24365;48.446;8.850;2023-05-07T15:01:06;4.78;;;4.10;;
38605;SDS011;24365;48.446;8.850;2023-05-07T15:11:08;4.10;;;1.73;;
38605;SDS011;24365;48.446;8.850;2023-05-07T15:16:09;2.58;;;2.10;;
38605;SDS011;24365;48.446;8.850;2023-05-07T15:21:10;3.63;;;2.10;;
38605;SDS011;24365;48.446;8.850;2023-05-07T15:26:14;4.25;;;1.88;;
38605;SDS011;24365;48.446;8.850;2023-05-07T15:31:15;2.13;;;1.50;;
38605;SDS011;24365;48.446;8.850;2023-05-07T15:36:17;2.78;;;2.17;;
38605;SDS011;24365;48.446;8.850;2023-05-07T15:41:19;4.43;;;2.75;;
38605;SDS011;24365;48.446;8.850;2023-05-07T15:46:21;3.75;;;2.20;;
38605;SDS011;24365;48.446;8.850;2023-05-07T15:51:26;5.82;;;2.00;;
38605;SDS011;24365;48.446;8.850;2023-05-07T15:56:28;3.72;;;1.73;;
38605;SDS011;24365;48.446;8.850;2023-05-07T16:01:32;3.13;;;1.70;;
38605;SDS011;24365;48.446;8.850;2023-05-07T16:06:34;2.17;;;1.80;;
38605;SDS011;24365;48.446;8.850;2023-05-07T16:11:35;3.47;;;1.88;;
38605;SDS011;24365;48.446;8.850;2023-05-07T16:16:36;2.97;;;1.48;;
38605;SDS011;24365;48.446;8.850;2023-05-07T16:21:39;2.92;;;1.80;;
38605;SDS011;24365;48.446;8.850;2023-05-07T16:26:41;5.13;;;2.00;;
38605;SDS011;24365;48.446;8.850;2023-05-07T16:31:43;2.65;;;1.70;;
38605;SDS011;24365;48.446;8.850;2023-05-07T16:36:46;2.95;;;2.00;;
38605;SDS011;24365;48.446;8.850;2023-05-07T16:41:47;3.17;;;1.83;;
38605;SDS011;24365;48.446;8.850;2023-05-07T16:46:49;2.50;;;1.60;;
38605;SDS011;24365;48.446;8.850;2023-05-07T16:51:52;3.25;;;2.42;;
38605;SDS011;24365;48.446;8.850;2023-05-07T16:56:53;4.22;;;2.05;;
38605;SDS011;24365;48.446;8.850;2023-05-07T17:01:54;8.57;;;4.55;;
38605;SDS011;24365;48.446;8.850;2023-05-07T17:06:55;120.47;;;45.67;;
38605;SDS011;24365;48.446;8.850;2023-05-07T17:11:57;87.53;;;38.90;;
38605;SDS011;24365;48.446;8.850;2023-05-07T17:16:58;31.70;;;16.48;;
38605;SDS011;24365;48.446;8.850;2023-05-07T17:27:01;6.68;;;4.65;;
38605;SDS011;24365;48.446;8.850;2023-05-07T17:32:02;3.83;;;2.70;;
38605;SDS011;24365;48.446;8.850;2023-05-07T17:37:04;5.30;;;3.03;;
38605;SDS011;24365;48.446;8.850;2023-05-07T17:42:05;6.43;;;2.90;;
38605;SDS011;24365;48.446;8.850;2023-05-07T17:47:06;5.63;;;2.88;;
38605;SDS011;24365;48.446;8.850;2023-05-07T17:57:08;23.67;;;12.93;;
38605;SDS011;24365;48.446;8.850;2023-05-07T18:02:09;27.05;;;12.73;;
38605;SDS011;24365;48.446;8.850;2023-05-07T18:12:33;5.45;;;3.35;;
38605;SDS011;24365;48.446;8.850;2023-05-07T18:17:35;3.47;;;2.40;;
38605;SDS011;24365;48.446;8.850;2023-05-07T18:22:36;2.85;;;2.13;;
38605;SDS011;24365;48.446;8.850;2023-05-07T18:27:38;3.83;;;2.58;;
38605;SDS011;24365;48.446;8.850;2023-05-07T18:32:39;4.10;;;2.45;;
38605;SDS011;24365;48.446;8.850;2023-05-07T18:37:40;4.47;;;2.30;;
38605;SDS011;24365;48.446;8.850;2023-05-07T18:42:41;2.28;;;2.08;;
38605;SDS011;24365;48.446;8.850;2023-05-07T18:52:43;3.85;;;2.30;;
38605;SDS011;24365;48.446;8.850;2023-05-07T18:57:44;2.03;;;1.83;;
38605;SDS011;24365;48.446;8.850;2023-05-07T19:02:45;5.65;;;2.22;;
38605;SDS011;24365;48.446;8.850;2023-05-07T19:07:48;4.53;;;2.38;;
38605;SDS011;24365;48.446;8.850;2023-05-07T19:12:50;6.85;;;2.40;;
38605;SDS011;24365;48.446;8.850;2023-05-07T19:17:55;3.05;;;2.50;;
38605;SDS011;24365;48.446;8.850;2023-05-07T19:22:56;3.40;;;2.35;;
38605;SDS011;24365;48.446;8.850;2023-05-07T19:27:57;5.85;;;2.70;;
38605;SDS011;24365;48.446;8.850;2023-05-07T19:32:58;4.40;;;2.45;;
38605;SDS011;24365;48.446;8.850;2023-05-07T19:38:00;3.50;;;2.42;;
38605;SDS011;24365;48.446;8.850;2023-05-07T19:43:02;3.22;;;2.42;;
38605;SDS011;24365;48.446;8.850;2023-05-07T19:48:03;2.97;;;2.17;;
38605;SDS011;24365;48.446;8.850;2023-05-07T19:53:04;3.58;;;3.00;;
38605;SDS011;24365;48.446;8.850;2023-05-07T19:58:05;3.75;;;3.25;;
38605;SDS011;24365;48.446;8.850;2023-05-07T20:03:07;3.83;;;3.00;;
38605;SDS011;24365;48.446;8.850;2023-05-07T20:08:09;3.70;;;2.72;;
38605;SDS011;24365;48.446;8.850;2023-05-07T20:13:12;3.83;;;2.80;;
38605;SDS011;24365;48.446;8.850;2023-05-07T20:18:15;2.67;;;2.28;;
38605;SDS011;24365;48.446;8.850;2023-05-07T20:23:16;3.97;;;3.05;;
38605;SDS011;24365;48.446;8.850;2023-05-07T20:28:17;5.75;;;2.85;;
38605;SDS011;24365;48.446;8.850;2023-05-07T20:33:18;3.08;;;2.63;;
38605;SDS011;24365;48.446;8.850;2023-05-07T20:43:20;3.33;;;2.38;;
38605;SDS011;24365;48.446;8.850;2023-05-07T20:48:21;4.57;;;2.40;;
38605;SDS011;24365;48.446;8.850;2023-05-07T20:53:23;4.28;;;2.60;;
38605;SDS011;24365;48.446;8.850;2023-05-07T20:58:26;5.18;;;2.35;;
38605;SDS011;24365;48.446;8.850;2023-05-07T21:03:28;4.90;;;2.90;;
38605;SDS011;24365;48.446;8.850;2023-05-07T21:08:29;3.75;;;2.35;;
38605;SDS011;24365;48.446;8.850;2023-05-07T21:13:30;4.40;;;2.30;;
38605;SDS011;24365;48.446;8.850;2023-05-07T21:18:31;3.53;;;2.77;;
38605;SDS011;24365;48.446;8.850;2023-05-07T21:23:32;7.47;;;2.95;;
38605;SDS011;24365;48.446;8.850;2023-05-07T21:28:33;7.23;;;3.20;;
38605;SDS011;24365;48.446;8.850;2023-05-07T21:33:34;3.70;;;2.67;;
38605;SDS011;24365;48.446;8.850;2023-05-07T21:38:35;6.80;;;3.33;;
38605;SDS011;24365;48.446;8.850;2023-05-07T21:43:37;6.55;;;3.28;;
38605;SDS011;24365;48.446;8.850;2023-05-07T21:48:38;4.55;;;2.80;;
38605;SDS011;24365;48.446;8.850;2023-05-07T21:53:39;7.00;;;3.93;;
38605;SDS011;24365;48.446;8.850;2023-05-07T21:58:40;5.35;;;3.80;;
38605;SDS011;24365;48.446;8.850;2023-05-07T22:03:41;5.37;;;4.50;;
38605;SDS011;24365;48.446;8.850;2023-05-07T22:08:42;6.60;;;4.23;;
38605;SDS011;24365;48.446;8.850;2023-05-07T22:13:43;6.70;;;4.23;;
38605;SDS011;24365;48.446;8.850;2023-05-07T22:18:44;5.47;;;4.43;;
38605;SDS011;24365;48.446;8.850;2023-05-07T22:23:45;5.10;;;4.18;;
38605;SDS011;24365;48.446;8.850;2023-05-07T22:28:46;4.60;;;3.97;;
38605;SDS011;24365;48.446;8.850;2023-05-07T22:33:47;5.07;;;4.25;;
38605;SDS011;24365;48.446;8.850;2023-05-07T22:38:48;6.23;;;4.03;;
38605;SDS011;24365;48.446;8.850;2023-05-07T22:43:49;5.17;;;3.53;;
38605;SDS011;24365;48.446;8.850;2023-05-07T22:48:50;6.25;;;4.07;;
38605;SDS011;24365;48.446;8.850;2023-05-07T22:53:51;5.63;;;3.35;;
38605;SDS011;24365;48.446;8.850;2023-05-07T22:58:52;5.63;;;3.30;;
38605;SDS011;24365;48.446;8.850;2023-05-07T23:03:53;6.27;;;3.00;;
38605;SDS011;24365;48.446;8.850;2023-05-07T23:08:54;4.70;;;3.10;;
38605;SDS011;24365;48.446;8.850;2023-05-07T23:13:55;6.85;;;3.38;;
38605;SDS011;24365;48.446;8.850;2023-05-07T23:18:56;6.33;;;3.80;;
38605;SDS011;24365;48.446;8.850;2023-05-07T23:23:57;10.02;;;4.00;;
38605;SDS011;24365;48.446;8.850;2023-05-07T23:28:58;7.10;;;4.67;;
38605;SDS011;24365;48.446;8.850;2023-05-07T23:34:00;6.28;;;4.47;;
38605;SDS011;24365;48.446;8.850;2023-05-07T23:39:01;6.72;;;4.15;;
38605;SDS011;24365;48.446;8.850;2023-05-07T23:44:02;7.47;;;4.17;;
38605;SDS011;24365;48.446;8.850;2023-05-07T23:49:03;5.63;;;3.77;;
38605;SDS011;24365;48.446;8.850;2023-05-07T23:54:04;7.67;;;3.80;;
